createdAt,value
2022-10-11T00:00:09.028Z,96737.69
2022-10-11T00:02:41.934Z,96747.34
2022-10-11T00:05:14.811Z,96743.97
2022-10-11T00:07:49.027Z,96744.41
2022-10-11T00:10:22.409Z,96747.88
2022-10-11T00:12:55.496Z,96755.25
2022-10-11T00:15:28.495Z,96759.16
2022-10-11T00:18:05.204Z,96757.59
2022-10-11T00:20:38.389Z,96758.38
2022-10-11T00:23:12.763Z,96761.50
2022-10-11T00:25:45.560Z,96758.03
2022-10-11T00:28:18.459Z,96758.03
2022-10-11T00:30:51.272Z,96756.91
2022-10-11T00:33:24.202Z,96778.13
2022-10-11T00:35:57.166Z,96773.88
2022-10-11T00:38:32.116Z,96780.84
2022-10-11T00:41:05.085Z,96784.66
2022-10-11T00:43:37.982Z,96782.75
2022-10-11T00:46:30.272Z,96772.38
2022-10-11T00:49:08.405Z,96775.84
2022-10-11T00:51:47.004Z,96772.38
2022-10-11T00:54:25.318Z,96780.47
2022-10-11T00:57:03.195Z,96779.31
2022-10-11T00:59:39.428Z,96786.25
2022-10-11T01:02:14.342Z,96776.56
2022-10-11T01:04:47.487Z,96775.44
2022-10-11T01:07:21.540Z,96765.44
2022-10-11T01:09:56.082Z,96766.97
2022-10-11T01:12:31.929Z,96763.13
2022-10-11T01:15:15.405Z,96767.06
2022-10-11T01:17:57.174Z,96765.91
2022-10-11T01:20:37.074Z,96758.19
2022-10-11T01:23:44.910Z,96752.50
2022-10-11T01:26:59.341Z,96742.84
2022-10-11T01:29:47.493Z,96743.19
2022-10-11T01:32:28.728Z,96747.81
2022-10-11T01:35:10.114Z,96744.25
2022-10-11T01:37:47.935Z,96746.16
2022-10-11T01:40:25.992Z,96754.97
2022-10-11T01:42:59.882Z,96752.97
2022-10-11T01:45:34.870Z,96756.47
2022-10-11T01:48:11.529Z,96747.94
2022-10-11T01:50:47.165Z,96751.78
2022-10-11T01:53:35.694Z,96742.13
2022-10-11T01:56:22.900Z,96742.47
2022-10-11T01:59:14.624Z,96747.53
2022-10-11T02:01:56.449Z,96752.16
2022-10-11T02:04:34.794Z,96750.56
2022-10-11T02:07:12.511Z,96745.59
2022-10-11T02:09:50.632Z,96749.06
2022-10-11T02:12:33.378Z,96752.94
2022-10-11T02:15:10.290Z,96748.66
2022-10-11T02:17:49.040Z,96757.88
2022-10-11T02:20:26.613Z,96753.63
2022-10-11T02:23:04.495Z,96753.19
2022-10-11T02:25:38.140Z,96751.97
2022-10-11T02:28:17.830Z,96745.78
2022-10-11T02:30:53.159Z,96737.28
2022-10-11T02:33:32.612Z,96742.25
2022-10-11T02:36:13.861Z,96739.13
2022-10-11T02:38:52.223Z,96743.72
2022-10-11T02:41:31.186Z,96747.94
2022-10-11T02:44:08.284Z,96747.94
2022-10-11T02:46:42.416Z,96741.66
2022-10-11T02:49:16.633Z,96745.16
2022-10-11T02:51:50.887Z,96744.03
2022-10-11T02:54:24.251Z,96746.72
2022-10-11T02:56:57.137Z,96745.16
2022-10-11T02:59:30.019Z,96752.09
2022-10-11T03:02:03.157Z,96742.44
2022-10-11T03:04:36.035Z,96749.06
2022-10-11T03:07:10.333Z,96749.41
2022-10-11T03:09:43.455Z,96744.81
2022-10-11T03:12:16.347Z,96753.25
2022-10-11T03:14:49.182Z,96752.81
2022-10-11T03:17:36.120Z,96748.19
2022-10-11T03:20:10.462Z,96743.16
2022-10-11T03:22:44.810Z,96740.78
2022-10-11T03:25:17.957Z,96744.28
2022-10-11T03:27:50.876Z,96743.09
2022-10-11T03:30:23.737Z,96751.97
2022-10-11T03:32:56.628Z,96743.78
2022-10-11T03:35:29.409Z,96752.31
2022-10-11T03:38:03.709Z,96760.41
2022-10-11T03:40:36.565Z,96753.00
2022-10-11T03:43:09.604Z,96753.34
2022-10-11T03:45:43.489Z,96757.16
2022-10-11T03:48:16.575Z,96759.13
2022-10-11T03:50:50.297Z,96758.75
2022-10-11T03:53:24.810Z,96763.00
2022-10-11T03:55:58.394Z,96761.03
2022-10-11T03:58:31.192Z,96764.06
2022-10-11T04:01:04.080Z,96762.94
2022-10-11T04:03:37.336Z,96772.59
2022-10-11T04:06:10.222Z,96758.34
2022-10-11T04:08:44.824Z,96764.13
2022-10-11T04:11:17.642Z,96765.63
2022-10-11T04:13:50.647Z,96755.63
2022-10-11T04:16:23.696Z,96769.13
2022-10-11T04:18:56.735Z,96762.50
2022-10-11T04:21:29.551Z,96756.31
2022-10-11T04:24:03.963Z,96760.16
2022-10-11T04:26:36.814Z,96765.88
2022-10-11T04:29:09.722Z,96755.44
2022-10-11T04:31:42.593Z,96755.44
2022-10-11T04:34:16.034Z,96752.75
2022-10-11T04:36:50.035Z,96756.56
2022-10-11T04:39:25.002Z,96751.97
2022-10-11T04:41:57.937Z,96748.50
2022-10-11T04:44:30.815Z,96745.78
2022-10-11T04:47:03.754Z,96755.88
2022-10-11T04:49:36.601Z,96753.53
2022-10-11T04:52:09.521Z,96755.09
2022-10-11T04:54:43.817Z,96756.66
2022-10-11T04:57:16.795Z,96759.81
2022-10-11T04:59:50.425Z,96766.75
2022-10-11T05:02:23.477Z,96766.41
2022-10-11T05:04:56.402Z,96764.84
2022-10-11T05:07:29.227Z,96764.50
2022-10-11T05:10:04.119Z,96770.66
2022-10-11T05:12:36.987Z,96771.03
2022-10-11T05:15:11.357Z,96763.72
2022-10-11T05:17:44.192Z,96769.13
2022-10-11T05:20:17.298Z,96770.66
2022-10-11T05:22:50.398Z,96767.97
2022-10-11T05:25:24.723Z,96766.47
2022-10-11T05:27:57.617Z,96769.53
2022-10-11T05:30:30.709Z,96768.41
2022-10-11T05:33:03.746Z,96771.09
2022-10-11T05:35:36.673Z,96767.25
2022-10-11T05:38:09.893Z,96768.84
2022-10-11T05:40:44.226Z,96775.00
2022-10-11T05:43:17.225Z,96776.94
2022-10-11T05:45:50.936Z,96784.66
2022-10-11T05:48:24.102Z,96774.56
2022-10-11T05:51:02.168Z,96781.19
2022-10-11T05:53:35.360Z,96787.28
2022-10-11T05:56:20.270Z,96784.22
2022-10-11T05:58:55.708Z,96796.50
2022-10-11T06:01:31.797Z,96791.09
2022-10-11T06:04:05.075Z,96801.09
2022-10-11T06:06:37.898Z,96801.09
2022-10-11T06:09:10.756Z,96801.88
2022-10-11T06:11:45.652Z,96808.06
2022-10-11T06:14:19.208Z,96799.97
2022-10-11T06:16:52.104Z,96806.94
2022-10-11T06:19:25.031Z,96818.16
2022-10-11T06:21:58.086Z,96808.59
2022-10-11T06:24:31.213Z,96817.88
2022-10-11T06:27:05.474Z,96811.00
2022-10-11T06:29:38.321Z,96823.03
2022-10-11T06:32:13.466Z,96819.59
2022-10-11T06:34:46.340Z,96818.47
2022-10-11T06:37:19.413Z,96820.47
2022-10-11T06:39:52.191Z,96818.22
2022-10-11T06:42:26.672Z,96820.97
2022-10-11T06:44:59.495Z,96829.16
2022-10-11T06:47:32.519Z,96833.88
2022-10-11T06:50:06.596Z,96840.56
2022-10-11T06:52:39.426Z,96841.00
2022-10-11T06:55:12.256Z,96839.47
2022-10-11T06:57:46.528Z,96848.81
2022-10-11T07:00:19.415Z,96844.28
2022-10-11T07:03:08.489Z,96839.28
2022-10-11T07:05:41.496Z,96846.25
2022-10-11T07:08:14.397Z,96848.25
2022-10-11T07:10:47.283Z,96850.22
2022-10-11T07:13:21.701Z,96859.97
2022-10-11T07:15:54.503Z,96859.19
2022-10-11T07:18:27.564Z,96860.41
2022-10-11T07:21:03.298Z,96854.69
2022-10-11T07:23:36.545Z,96860.13
2022-10-11T07:26:11.278Z,96857.09
2022-10-11T07:28:45.985Z,96865.31
2022-10-11T07:31:21.721Z,96858.38
2022-10-11T07:33:54.771Z,96859.59
2022-10-11T07:36:27.603Z,96860.88
2022-10-11T07:39:00.675Z,96869.56
2022-10-11T07:41:33.940Z,96869.69
2022-10-11T07:44:08.410Z,96865.31
2022-10-11T07:46:41.250Z,96866.66
2022-10-11T07:49:14.025Z,96869.13
2022-10-11T07:51:46.857Z,96874.75
2022-10-11T07:54:19.707Z,96876.88
2022-10-11T07:56:52.495Z,96872.75
2022-10-11T07:59:27.195Z,96875.34
2022-10-11T08:02:00.368Z,96871.25
2022-10-11T08:04:33.272Z,96875.31
2022-10-11T08:07:06.765Z,96871.66
2022-10-11T08:09:39.663Z,96876.88
2022-10-11T08:12:13.030Z,96873.19
2022-10-11T08:14:47.472Z,96876.06
2022-10-11T08:17:20.287Z,96871.59
2022-10-11T08:19:53.403Z,96862.47
2022-10-11T08:22:26.212Z,96873.09
2022-10-11T08:24:59.451Z,96871.31
2022-10-11T08:27:32.323Z,96866.03
2022-10-11T08:30:08.708Z,96869.28
2022-10-11T08:32:41.560Z,96877.16
2022-10-11T08:35:14.777Z,96863.31
2022-10-11T08:37:48.006Z,96865.34
2022-10-11T08:40:22.893Z,96868.19
2022-10-11T08:43:03.743Z,96872.53
2022-10-11T08:45:44.594Z,96869.94
2022-10-11T08:48:19.621Z,96868.06
2022-10-11T08:50:55.520Z,96867.38
2022-10-11T08:53:42.273Z,96865.94
2022-10-11T08:56:16.874Z,96861.34
2022-10-11T08:58:55.667Z,96867.59
2022-10-11T09:01:30.711Z,96863.72
2022-10-11T09:04:06.146Z,96859.84
2022-10-11T09:06:51.726Z,96864.53
2022-10-11T09:09:38.853Z,96869.22
2022-10-11T09:12:19.912Z,96874.25
2022-10-11T09:15:04.078Z,96886.69
2022-10-11T09:17:50.718Z,96870.75
2022-10-11T09:20:45.273Z,96876.19
2022-10-11T09:23:35.759Z,96863.31
2022-10-11T09:26:15.992Z,96878.78
2022-10-11T09:29:00.948Z,96880.66
2022-10-11T09:31:34.488Z,96864.69
2022-10-11T09:34:14.763Z,96865.03
2022-10-11T09:36:55.662Z,96870.38
2022-10-11T09:39:32.752Z,96871.88
2022-10-11T09:42:08.102Z,96868.75
2022-10-11T09:44:46.719Z,96867.19
2022-10-11T09:47:23.131Z,96857.91
2022-10-11T09:50:00.342Z,96860.28
2022-10-11T09:52:35.317Z,96866.50
2022-10-11T09:55:08.896Z,96868.47
2022-10-11T09:57:42.048Z,96868.13
2022-10-11T10:00:22.512Z,96866.28
2022-10-11T10:02:57.187Z,96870.94
2022-10-11T10:05:32.780Z,96879.13
2022-10-11T10:08:24.849Z,96875.28
2022-10-11T10:11:03.695Z,96868.69
2022-10-11T10:13:44.451Z,96866.03
2022-10-11T10:16:23.562Z,96868.38
2022-10-11T10:18:59.437Z,96862.53
2022-10-11T10:21:36.863Z,96856.78
2022-10-11T10:24:19.139Z,96853.28
2022-10-11T10:27:18.027Z,96862.31
2022-10-11T10:30:16.034Z,96861.16
2022-10-11T10:32:58.514Z,96857.72
2022-10-11T10:35:38.473Z,96853.84
2022-10-11T10:38:21.727Z,96857.31
2022-10-11T10:40:59.249Z,96863.16
2022-10-11T10:43:36.163Z,96855.03
2022-10-11T10:46:35.305Z,96858.94
2022-10-11T10:52:32.062Z,96851.63
2022-10-11T10:55:24.601Z,96846.97
2022-10-11T10:58:07.215Z,96854.75
2022-10-11T11:00:45.293Z,96844.66
2022-10-11T11:03:25.217Z,96846.22
2022-10-11T11:06:04.547Z,96833.41
2022-10-11T11:08:53.005Z,96850.13
2022-10-11T11:11:47.404Z,96836.13
2022-10-11T11:14:35.045Z,96833.44
2022-10-11T11:17:22.956Z,96835.41
2022-10-11T11:20:09.878Z,96828.41
2022-10-11T11:22:50.714Z,96831.53
2022-10-11T11:25:39.291Z,96834.66
2022-10-11T11:28:30.712Z,96816.44
2022-10-11T11:31:12.687Z,96830.81
2022-10-11T11:33:56.635Z,96829.66
2022-10-11T11:36:38.621Z,96823.06
2022-10-11T11:39:17.437Z,96812.59
2022-10-11T11:41:57.482Z,96809.09
2022-10-11T11:44:35.649Z,96811.06
2022-10-11T11:47:17.812Z,96810.69
2022-10-11T11:49:59.995Z,96800.97
2022-10-11T11:52:39.310Z,96799.81
2022-10-11T11:55:20.078Z,96809.56
2022-10-11T11:58:06.807Z,96804.53
2022-10-11T12:00:50.323Z,96800.28
2022-10-11T12:03:27.917Z,96798.69
2022-10-11T12:06:21.066Z,96789.78
2022-10-11T12:09:03.656Z,96792.13
2022-10-11T12:11:50.816Z,96783.59
2022-10-11T12:14:35.749Z,96784.75
2022-10-11T12:17:22.878Z,96779.69
2022-10-11T12:20:17.540Z,96794.09
2022-10-11T12:23:00.420Z,96785.94
2022-10-11T12:25:47.771Z,96783.22
2022-10-11T12:29:11.114Z,96791.38
2022-10-11T12:31:46.252Z,96786.34
2022-10-11T12:34:34.615Z,96775.84
2022-10-11T12:37:44.961Z,96768.44
2022-10-11T12:40:42.088Z,96772.31
2022-10-11T12:43:58.150Z,96772.72
2022-10-11T12:46:40.353Z,96775.03
2022-10-11T12:49:49.108Z,96767.25
2022-10-11T12:52:33.584Z,96765.69
2022-10-11T12:55:46.425Z,96769.19
2022-10-11T12:58:30.549Z,96759.50
2022-10-11T13:01:23.132Z,96768.06
2022-10-11T13:04:04.088Z,96756.03
2022-10-11T13:06:46.446Z,96766.50
2022-10-11T13:09:28.787Z,96746.69
2022-10-11T13:12:06.579Z,96757.94
2022-10-11T13:14:45.111Z,96764.16
2022-10-11T13:17:22.273Z,96759.53
2022-10-11T13:20:02.497Z,96766.13
2022-10-11T13:22:40.499Z,96758.34
2022-10-11T13:25:18.288Z,96763.03
2022-10-11T13:27:53.836Z,96766.97
2022-10-11T13:30:29.894Z,96753.34
2022-10-11T13:33:07.250Z,96753.31
2022-10-11T13:35:40.370Z,96749.41
2022-10-11T13:38:23.948Z,96754.47
2022-10-11T13:40:58.223Z,96752.91
2022-10-11T13:43:32.435Z,96755.22
2022-10-11T13:46:06.646Z,96754.44
2022-10-11T13:48:41.147Z,96756.00
2022-10-11T13:51:18.927Z,96752.88
2022-10-11T13:54:02.296Z,96757.53
2022-10-11T13:56:39.701Z,96739.25
2022-10-11T13:59:19.021Z,96743.50
2022-10-11T14:01:59.331Z,96738.06
2022-10-11T14:04:41.957Z,96738.47
2022-10-11T14:07:24.919Z,96739.63
2022-10-11T14:09:59.674Z,96738.09
2022-10-11T14:12:38.178Z,96748.97
2022-10-11T14:15:25.974Z,96743.91
2022-10-11T14:18:00.312Z,96734.19
2022-10-11T14:20:39.144Z,96739.63
2022-10-11T14:23:13.533Z,96743.91
2022-10-11T14:25:47.762Z,96737.66
2022-10-11T14:28:20.624Z,96741.56
2022-10-11T14:30:53.574Z,96735.31
2022-10-11T14:33:26.709Z,96740.38
2022-10-11T14:35:59.750Z,96745.03
2022-10-11T14:38:32.743Z,96744.66
2022-10-11T14:41:07.344Z,96740.72
2022-10-11T14:43:40.168Z,96734.53
2022-10-11T14:46:22.526Z,96744.22
2022-10-11T14:48:56.941Z,96739.97
2022-10-11T14:51:35.634Z,96739.97
2022-10-11T14:54:08.959Z,96740.38
2022-10-11T14:56:44.303Z,96738.44
2022-10-11T14:59:19.739Z,96739.63
2022-10-11T15:01:54.119Z,96741.97
2022-10-11T15:04:28.091Z,96749.00
2022-10-11T15:07:01.059Z,96742.00
2022-10-11T15:09:34.130Z,96753.69
2022-10-11T15:12:08.883Z,96745.13
2022-10-11T15:14:41.799Z,96743.56
2022-10-11T15:17:14.628Z,96742.81
2022-10-11T15:19:48.004Z,96747.84
2022-10-11T15:22:20.985Z,96757.22
2022-10-11T15:24:53.877Z,96744.00
2022-10-11T15:27:28.860Z,96745.53
2022-10-11T15:30:02.071Z,96751.38
2022-10-11T15:32:38.113Z,96744.00
2022-10-11T15:35:11.368Z,96738.94
2022-10-11T15:37:44.942Z,96749.81
2022-10-11T15:40:21.928Z,96748.63
2022-10-11T15:42:56.690Z,96749.00
2022-10-11T15:45:30.052Z,96750.59
2022-10-11T15:48:03.251Z,96755.19
2022-10-11T15:50:38.203Z,96752.47
2022-10-11T15:53:13.237Z,96750.88
2022-10-11T15:55:47.545Z,96754.34
2022-10-11T15:58:24.249Z,96749.28
2022-10-11T16:00:58.531Z,96746.94
2022-10-11T16:03:31.852Z,96755.84
2022-10-11T16:06:05.926Z,96754.25
2022-10-11T16:08:39.434Z,96758.84
2022-10-11T16:11:13.489Z,96758.44
2022-10-11T16:13:47.860Z,96764.59
2022-10-11T16:16:20.702Z,96770.00
2022-10-11T16:18:54.297Z,96765.25
2022-10-11T16:21:27.209Z,96765.59
2022-10-11T16:24:00.504Z,96770.97
2022-10-11T16:26:33.375Z,96768.19
2022-10-11T16:29:07.800Z,96771.22
2022-10-11T16:31:40.692Z,96770.41
2022-10-11T16:34:13.671Z,96768.78
2022-10-11T16:36:46.590Z,96769.47
2022-10-11T16:39:20.289Z,96774.44
2022-10-11T16:41:53.186Z,96769.28
2022-10-11T16:44:28.013Z,96774.25
2022-10-11T16:47:01.466Z,96775.72
2022-10-11T16:49:35.297Z,96776.03
2022-10-11T16:52:10.717Z,96775.53
2022-10-11T16:54:45.711Z,96781.25
2022-10-11T16:57:20.078Z,96786.56
2022-10-11T16:59:54.886Z,96779.13
2022-10-11T17:02:32.366Z,96786.75
2022-10-11T17:05:06.159Z,96785.47
2022-10-11T17:07:39.078Z,96790.00
2022-10-11T17:10:11.927Z,96787.91
2022-10-11T17:12:50.014Z,96791.31
2022-10-11T17:15:26.186Z,96791.16
2022-10-11T17:17:59.244Z,96791.44
2022-10-11T17:20:32.094Z,96790.13
2022-10-11T17:23:04.975Z,96791.94
2022-10-11T17:25:42.439Z,96795.34
2022-10-11T17:28:15.517Z,96788.19
2022-10-11T17:30:55.794Z,96792.72
2022-10-11T17:33:29.525Z,96797.59
2022-10-11T17:36:03.309Z,96795.09
2022-10-11T17:38:36.472Z,96795.75
2022-10-11T17:41:09.869Z,96795.25
2022-10-11T17:43:43.284Z,96798.28
2022-10-11T17:46:19.267Z,96792.78
2022-10-11T17:48:54.960Z,96796.50
2022-10-11T17:51:28.422Z,96799.94
2022-10-11T17:54:01.371Z,96799.81
2022-10-11T17:56:37.857Z,96797.84
2022-10-11T17:59:18.040Z,96803.50
2022-10-11T18:01:52.361Z,96799.53
2022-10-11T18:04:27.197Z,96797.50
2022-10-11T18:07:00.088Z,96802.38
2022-10-11T18:09:34.907Z,96807.66
2022-10-11T18:12:08.208Z,96809.44
2022-10-11T18:14:41.341Z,96811.19
2022-10-11T18:17:15.729Z,96816.44
2022-10-11T18:19:48.667Z,96819.00
2022-10-11T18:22:21.574Z,96816.13
2022-10-11T18:24:54.454Z,96815.97
2022-10-11T18:27:27.398Z,96812.00
2022-10-11T18:30:00.335Z,96808.03
2022-10-11T18:32:34.999Z,96809.06
2022-10-11T18:35:08.624Z,96807.34
2022-10-11T18:37:41.937Z,96809.19
2022-10-11T18:40:14.812Z,96804.06
2022-10-11T18:42:48.099Z,96806.69
2022-10-11T18:45:20.977Z,96810.06
2022-10-11T18:47:55.420Z,96809.19
2022-10-11T18:50:28.249Z,96810.59
2022-10-11T18:53:01.278Z,96805.91
2022-10-11T18:55:34.133Z,96818.09
2022-10-11T18:58:07.384Z,96808.72
2022-10-11T19:00:41.492Z,96817.47
2022-10-11T19:03:16.488Z,96818.50
2022-10-11T19:05:49.369Z,96817.19
2022-10-11T19:08:22.237Z,96811.72
2022-10-11T19:10:55.067Z,96815.03
2022-10-11T19:13:27.984Z,96810.66
2022-10-11T19:16:09.315Z,96814.03
2022-10-11T19:18:44.724Z,96805.44
2022-10-11T19:21:18.257Z,96806.50
2022-10-11T19:23:51.915Z,96813.69
2022-10-11T19:26:28.912Z,96810.47
2022-10-11T19:29:03.917Z,96808.13
2022-10-11T19:31:42.060Z,96810.63
2022-10-11T19:34:17.042Z,96816.69
2022-10-11T19:36:52.778Z,96815.38
2022-10-11T19:39:26.187Z,96815.28
2022-10-11T19:42:00.282Z,96825.19
2022-10-11T19:44:37.122Z,96815.88
2022-10-11T19:47:12.526Z,96815.78
2022-10-11T19:49:46.823Z,96815.00
2022-10-11T19:52:19.663Z,96823.06
2022-10-11T19:54:52.666Z,96817.34
2022-10-11T19:57:25.934Z,96815.78
2022-10-11T19:59:58.933Z,96811.97
2022-10-11T20:02:32.030Z,96818.13
2022-10-11T20:05:07.453Z,96816.66
2022-10-11T20:07:40.620Z,96827.44
2022-10-11T20:10:13.485Z,96825.09
2022-10-11T20:12:46.460Z,96820.81
2022-10-11T20:15:19.305Z,96822.72
2022-10-11T20:17:52.183Z,96829.69
2022-10-11T20:20:27.033Z,96825.75
2022-10-11T20:22:59.993Z,96823.78
2022-10-11T20:25:33.039Z,96816.38
2022-10-11T20:28:06.039Z,96818.63
2022-10-11T20:30:42.962Z,96823.56
2022-10-11T20:33:15.810Z,96825.38
2022-10-11T20:35:59.558Z,96817.63
2022-10-11T20:38:33.696Z,96816.75
2022-10-11T20:41:07.713Z,96816.66
2022-10-11T20:43:42.987Z,96829.66
2022-10-11T20:46:17.880Z,96824.66
2022-10-11T20:48:55.481Z,96826.88
2022-10-11T20:51:34.003Z,96824.06
2022-10-11T20:54:07.219Z,96827.44
2022-10-11T20:56:40.959Z,96827.78
2022-10-11T20:59:13.880Z,96824.63
2022-10-11T21:01:46.803Z,96831.13
2022-10-11T21:04:21.178Z,96832.59
2022-10-11T21:06:55.594Z,96824.53
2022-10-11T21:09:28.388Z,96832.16
2022-10-11T21:12:02.091Z,96826.34
2022-10-11T21:14:37.524Z,96830.16
2022-10-11T21:17:11.590Z,96823.97
2022-10-11T21:19:44.480Z,96818.94
2022-10-11T21:22:18.759Z,96820.50
2022-10-11T21:24:51.738Z,96820.84
2022-10-11T21:27:25.092Z,96819.72
2022-10-11T21:29:58.272Z,96826.56
2022-10-11T21:32:31.184Z,96820.38
2022-10-11T21:35:04.321Z,96821.53
2022-10-11T21:37:38.735Z,96817.63
2022-10-11T21:40:11.603Z,96818.28
2022-10-11T21:42:44.624Z,96813.94
2022-10-11T21:45:17.697Z,96813.03
2022-10-11T21:47:50.568Z,96812.94
2022-10-11T21:50:23.516Z,96817.41
2022-10-11T21:52:57.833Z,96813.47
2022-10-11T21:55:31.045Z,96818.78
2022-10-11T21:58:04.058Z,96818.00
2022-10-11T22:00:36.971Z,96811.03
2022-10-11T22:03:10.035Z,96815.75
2022-10-11T22:05:46.003Z,96817.75
2022-10-11T22:08:20.402Z,96819.44
2022-10-11T22:10:55.614Z,96822.66
2022-10-11T22:13:30.856Z,96822.09
2022-10-11T22:16:04.689Z,96831.16
2022-10-11T22:18:38.169Z,96829.47
2022-10-11T22:21:13.514Z,96826.66
2022-10-11T22:23:50.140Z,96828.13
2022-10-11T22:26:25.630Z,96827.97
2022-10-11T22:28:59.111Z,96825.16
2022-10-11T22:31:32.352Z,96826.53
2022-10-11T22:34:05.293Z,96824.47
2022-10-11T22:36:39.072Z,96829.38
2022-10-11T22:39:13.487Z,96820.03
2022-10-11T22:41:46.282Z,96821.00
2022-10-11T22:44:19.137Z,96816.56
2022-10-11T22:46:52.007Z,96820.59
2022-10-11T22:49:25.192Z,96818.06
2022-10-11T22:51:58.081Z,96819.81
2022-10-11T22:54:32.555Z,96816.50
2022-10-11T22:57:05.459Z,96817.38
2022-10-11T22:59:38.572Z,96819.50
2022-10-11T23:02:11.547Z,96819.66
2022-10-11T23:04:44.409Z,96819.75
2022-10-11T23:07:17.299Z,96817.13
2022-10-11T23:09:52.031Z,96814.97
2022-10-11T23:12:24.936Z,96812.69
2022-10-11T23:14:58.363Z,96819.72
2022-10-11T23:17:31.382Z,96815.56
2022-10-11T23:20:05.510Z,96809.44
2022-10-11T23:22:38.359Z,96801.78
2022-10-11T23:25:12.770Z,96805.00
2022-10-11T23:27:45.808Z,96804.28
2022-10-11T23:30:18.921Z,96805.94
2022-10-11T23:32:51.771Z,96806.44
2022-10-11T23:35:24.689Z,96805.72
2022-10-11T23:37:57.747Z,96808.53
2022-10-11T23:40:32.037Z,96798.22
2022-10-11T23:43:04.893Z,96805.97
2022-10-11T23:45:37.727Z,96811.44
2022-10-11T23:48:10.650Z,96813.44
2022-10-11T23:50:44.089Z,96819.25
2022-10-11T23:53:16.946Z,96818.91
2022-10-11T23:55:51.945Z,96816.31
2022-10-11T23:58:24.909Z,96822.88
